Time;durP1;ratioP1;P1;durP2;ratioP2;P2;SDS_P1;SDS_P2;PMS_P1;PMS_P2;Temp;Humidity;BMP_temperature;BMP_pressure;BME280_temperature;BME280_humidity;BME280_pressure;Samples;Min_cycle;Max_cycle;Signal;HPM_P1;HPM_P2
2022/05/19 00:00:35;;;;;;;;;;;11.70;99.90;;;;;;5095503;28;20000;-81
2022/05/19 00:03:01;;;;;;;;;;;11.60;99.90;;;;;;5095127;28;19927;-81
2022/05/19 00:05:26;;;;;;;;;;;11.50;99.90;;;;;;5095470;28;19912;-80
2022/05/19 00:07:52;;;;;;;;;;;11.50;99.90;;;;;;5094782;28;19908;-80
2022/05/19 00:10:18;;;;;;;;;;;11.50;99.90;;;;;;5095565;28;19957;-80
2022/05/19 00:12:43;;;;;;;;;;;11.50;99.90;;;;;;5095435;28;19926;-77
2022/05/19 00:15:11;;;;;;;;;;;11.40;99.90;;;;;;5095172;28;19969;-80
2022/05/19 00:17:36;;;;;;;;;;;11.40;99.90;;;;;;5095527;28;19908;-80
2022/05/19 00:20:02;;;;;;;;;;;11.40;99.90;;;;;;5095294;28;20356;-81
2022/05/19 00:22:27;;;;;;;;;;;11.30;99.90;;;;;;5095055;28;19916;-81
2022/05/19 00:24:53;;;;;;;;;;;11.20;99.90;;;;;;5094899;28;20357;-80
2022/05/19 00:27:19;;;;;;;;;;;11.20;99.90;;;;;;5095216;28;19912;-81
2022/05/19 00:29:44;;;;;;;;;;;11.20;99.90;;;;;;5094757;28;19915;-77
2022/05/19 00:32:10;;;;;;;;;;;11.10;99.90;;;;;;5095495;28;19908;-80
2022/05/19 00:34:35;;;;;;;;;;;11.10;99.90;;;;;;5095372;28;20380;-80
2022/05/19 00:37:01;;;;;;;;;;;11.00;99.90;;;;;;5094471;28;19915;-80
2022/05/19 00:39:30;;;;;;;;;;;11.00;99.90;;;;;;5095780;28;19909;-80
2022/05/19 00:44:41;;;;;;;;;;;10.90;99.90;;;;;;5095672;28;19976;-81
2022/05/19 00:47:11;;;;;;;;;;;10.90;99.90;;;;;;5094867;28;20361;-80
2022/05/19 00:49:40;;;;;;;;;;;10.80;99.90;;;;;;5095118;28;19912;-80
2022/05/19 00:52:10;;;;;;;;;;;10.80;99.90;;;;;;5094567;28;19908;-80
2022/05/19 00:54:39;;;;;;;;;;;10.80;99.90;;;;;;5095299;28;19908;-80
2022/05/19 00:57:17;;;;;;;;;;;10.80;99.90;;;;;;5094294;28;19973;-80
2022/05/19 00:59:54;;;;;;;;;;;10.80;99.90;;;;;;5095246;28;19909;-80
2022/05/19 01:02:22;;;;;;;;;;;10.70;99.90;;;;;;5093808;28;19912;-80
2022/05/19 01:04:48;;;;;;;;;;;10.80;99.90;;;;;;5094390;28;19916;-79
2022/05/19 01:07:17;;;;;;;;;;;10.80;99.90;;;;;;5094953;28;20337;-79
2022/05/19 01:09:43;;;;;;;;;;;10.70;99.90;;;;;;5094833;28;19908;-80
2022/05/19 01:12:09;;;;;;;;;;;10.70;99.90;;;;;;5094489;28;19959;-79
2022/05/19 01:14:35;;;;;;;;;;;10.70;99.90;;;;;;5094666;28;20284;-80
2022/05/19 01:17:02;;;;;;;;;;;10.60;99.90;;;;;;5094353;28;19915;-80
2022/05/19 01:19:42;;;;;;;;;;;10.60;99.90;;;;;;5094754;28;19908;-80
2022/05/19 01:22:25;;;;;;;;;;;10.60;99.90;;;;;;5094413;28;20357;-80
2022/05/19 01:24:58;;;;;;;;;;;10.60;99.90;;;;;;5094178;28;19912;-79
2022/05/19 01:27:24;;;;;;;;;;;10.50;99.90;;;;;;5094468;28;19919;-80
2022/05/19 01:29:50;;;;;;;;;;;10.40;99.90;;;;;;5094002;28;19912;-79
2022/05/19 01:32:23;;;;;;;;;;;10.50;99.90;;;;;;5094557;28;19931;-80
2022/05/19 01:34:49;;;;;;;;;;;10.50;99.90;;;;;;5094065;28;19912;-76
2022/05/19 01:37:14;;;;;;;;;;;10.50;99.90;;;;;;5093152;28;19908;-81
2022/05/19 01:39:40;;;;;;;;;;;10.50;99.90;;;;;;5094252;28;19915;-80
2022/05/19 01:42:35;;;;;;;;;;;10.50;99.90;;;;;;5093643;28;20353;-80
2022/05/19 01:45:00;;;;;;;;;;;10.50;99.90;;;;;;5093731;28;19919;-80
2022/05/19 01:47:31;;;;;;;;;;;10.50;99.90;;;;;;5092986;28;19908;-80
2022/05/19 01:50:15;;;;;;;;;;;10.50;99.90;;;;;;5091308;28;19915;-79
2022/05/19 01:52:45;;;;;;;;;;;10.50;99.90;;;;;;5094157;28;20280;-80
2022/05/19 01:55:16;;;;;;;;;;;10.50;99.90;;;;;;5093530;28;20711;-80
2022/05/19 01:57:53;;;;;;;;;;;10.50;99.90;;;;;;5094123;28;19921;-80
2022/05/19 02:00:23;;;;;;;;;;;10.50;99.90;;;;;;5094092;28;20361;-80
2022/05/19 02:02:49;;;;;;;;;;;10.40;99.90;;;;;;5093688;28;19912;-77
2022/05/19 02:05:22;;;;;;;;;;;10.40;99.90;;;;;;5093293;28;19919;-80
2022/05/19 02:07:50;;;;;;;;;;;10.40;99.90;;;;;;5093772;28;20351;-80
2022/05/19 02:10:18;;;;;;;;;;;10.30;99.90;;;;;;5093645;28;19909;-80
2022/05/19 02:12:45;;;;;;;;;;;10.30;99.90;;;;;;5093787;28;20368;-80
2022/05/19 02:15:13;;;;;;;;;;;10.30;99.90;;;;;;5092792;28;20003;-80
2022/05/19 02:17:40;;;;;;;;;;;10.30;99.90;;;;;;5093664;28;19908;-81
2022/05/19 02:20:08;;;;;;;;;;;10.40;99.90;;;;;;5091905;28;19908;-81
2022/05/19 02:22:35;;;;;;;;;;;10.40;99.90;;;;;;5093613;28;19918;-81
2022/05/19 02:25:10;;;;;;;;;;;10.40;99.90;;;;;;5091821;28;20325;-79
2022/05/19 02:27:42;;;;;;;;;;;10.30;99.90;;;;;;5093513;28;19914;-80
2022/05/19 02:30:09;;;;;;;;;;;10.30;99.90;;;;;;5092995;28;20038;-80
2022/05/19 02:32:38;;;;;;;;;;;10.30;99.90;;;;;;5093525;28;19914;-80
2022/05/19 02:35:04;;;;;;;;;;;10.30;99.90;;;;;;5092889;28;19908;-79
2022/05/19 02:37:30;;;;;;;;;;;10.10;99.90;;;;;;5092986;28;19947;-79
2022/05/19 02:39:56;;;;;;;;;;;10.10;99.90;;;;;;5093069;28;20292;-80
2022/05/19 02:42:22;;;;;;;;;;;10.10;99.90;;;;;;5093550;28;19919;-80
2022/05/19 02:44:47;;;;;;;;;;;10.00;99.90;;;;;;5092942;28;19923;-80
2022/05/19 02:47:13;;;;;;;;;;;10.00;99.90;;;;;;5092414;28;19911;-80
2022/05/19 02:49:39;;;;;;;;;;;10.00;99.90;;;;;;5093016;28;19918;-79
2022/05/19 02:52:04;;;;;;;;;;;10.00;99.90;;;;;;5092660;28;19912;-79
2022/05/19 02:54:30;;;;;;;;;;;10.00;99.90;;;;;;5093387;28;19950;-79
2022/05/19 02:56:55;;;;;;;;;;;10.00;99.90;;;;;;5092583;28;19920;-78
2022/05/19 02:59:21;;;;;;;;;;;10.00;99.90;;;;;;5092778;28;19909;-80
2022/05/19 03:01:46;;;;;;;;;;;10.00;99.90;;;;;;5092731;28;19962;-79
2022/05/19 03:04:12;;;;;;;;;;;10.00;99.90;;;;;;5092192;28;19916;-79
2022/05/19 03:06:38;;;;;;;;;;;10.00;99.90;;;;;;5091459;28;20265;-79
2022/05/19 03:09:04;;;;;;;;;;;10.00;99.90;;;;;;5092234;28;19908;-79
2022/05/19 03:11:30;;;;;;;;;;;10.10;99.90;;;;;;5092655;28;20352;-80
2022/05/19 03:13:56;;;;;;;;;;;10.00;99.90;;;;;;5092535;28;19952;-77
2022/05/19 03:16:21;;;;;;;;;;;10.00;99.90;;;;;;5092734;28;19943;-80
2022/05/19 03:18:47;;;;;;;;;;;10.00;99.90;;;;;;5093065;28;19938;-80
2022/05/19 03:21:13;;;;;;;;;;;9.90;99.90;;;;;;5091950;28;20254;-80
2022/05/19 03:23:39;;;;;;;;;;;9.90;99.90;;;;;;5092881;28;19912;-80
2022/05/19 03:26:05;;;;;;;;;;;10.00;99.90;;;;;;5092331;28;19965;-80
2022/05/19 03:28:30;;;;;;;;;;;10.00;99.90;;;;;;5092724;28;19908;-80
2022/05/19 03:30:56;;;;;;;;;;;9.90;99.90;;;;;;5092249;28;19908;-77
2022/05/19 03:33:22;;;;;;;;;;;9.80;99.90;;;;;;5092588;28;19914;-79
2022/05/19 03:35:57;;;;;;;;;;;9.80;99.90;;;;;;5092567;28;19919;-80
2022/05/19 03:38:22;;;;;;;;;;;9.90;99.90;;;;;;5092287;28;19961;-79
2022/05/19 03:40:48;;;;;;;;;;;9.90;99.90;;;;;;5092630;28;20001;-79
2022/05/19 03:43:13;;;;;;;;;;;9.80;99.90;;;;;;5092106;28;19912;-79
2022/05/19 03:45:39;;;;;;;;;;;9.80;99.90;;;;;;5092551;28;20369;-79
2022/05/19 03:48:05;;;;;;;;;;;9.80;99.90;;;;;;5092077;28;19908;-79
2022/05/19 03:50:31;;;;;;;;;;;9.80;99.90;;;;;;5092656;28;19915;-79
2022/05/19 03:52:56;;;;;;;;;;;9.80;99.90;;;;;;5092500;28;19961;-76
2022/05/19 03:55:22;;;;;;;;;;;9.80;99.90;;;;;;5092244;28;19908;-79
2022/05/19 03:57:47;;;;;;;;;;;9.80;99.90;;;;;;5092212;28;20302;-79
2022/05/19 04:00:13;;;;;;;;;;;9.80;99.90;;;;;;5091962;28;19960;-79
2022/05/19 04:02:39;;;;;;;;;;;9.80;99.90;;;;;;5091318;28;20353;-79
2022/05/19 04:05:05;;;;;;;;;;;9.80;99.90;;;;;;5124880;28;20011;-80
2022/05/19 04:07:31;;;;;;;;;;;9.80;99.90;;;;;;5092233;28;20432;-79
2022/05/19 04:09:56;;;;;;;;;;;9.80;99.90;;;;;;5090936;28;19961;-79
2022/05/19 04:12:22;;;;;;;;;;;9.80;99.90;;;;;;5093046;28;19912;-79
2022/05/19 04:14:48;;;;;;;;;;;9.70;99.90;;;;;;5096187;28;20266;-79
2022/05/19 04:17:13;;;;;;;;;;;9.60;99.90;;;;;;5095883;28;19908;-78
2022/05/19 04:19:39;;;;;;;;;;;9.70;99.90;;;;;;5096124;28;19915;-78
2022/05/19 04:22:04;;;;;;;;;;;9.60;99.90;;;;;;5095071;28;20005;-78
2022/05/19 04:24:30;;;;;;;;;;;9.60;99.90;;;;;;5095997;28;19916;-79
2022/05/19 04:26:55;;;;;;;;;;;9.50;99.90;;;;;;5094561;28;20262;-79
2022/05/19 04:29:21;;;;;;;;;;;9.50;99.90;;;;;;5095229;28;19959;-78
2022/05/19 04:31:47;;;;;;;;;;;9.50;99.90;;;;;;5095749;28;20002;-79
2022/05/19 04:34:12;;;;;;;;;;;9.50;99.90;;;;;;5095206;28;20349;-78
2022/05/19 04:36:38;;;;;;;;;;;9.60;99.90;;;;;;5095713;28;19919;-79
2022/05/19 04:39:03;;;;;;;;;;;9.60;99.90;;;;;;5094997;28;19908;-78
2022/05/19 04:41:29;;;;;;;;;;;9.50;99.90;;;;;;5095774;28;19954;-79
2022/05/19 04:43:55;;;;;;;;;;;9.60;99.90;;;;;;5095329;28;19912;-79
2022/05/19 04:46:20;;;;;;;;;;;9.60;99.90;;;;;;5094997;28;20517;-79
2022/05/19 04:48:46;;;;;;;;;;;9.60;99.90;;;;;;5095434;28;19908;-79
2022/05/19 04:51:11;;;;;;;;;;;9.70;99.90;;;;;;5094634;28;19908;-78
2022/05/19 04:53:37;;;;;;;;;;;9.60;99.90;;;;;;5095482;28;19908;-79
2022/05/19 04:56:03;;;;;;;;;;;9.60;99.90;;;;;;5094814;28;19908;-75
2022/05/19 04:58:28;;;;;;;;;;;9.60;99.90;;;;;;5095418;28;19920;-78
2022/05/19 05:00:54;;;;;;;;;;;9.70;99.90;;;;;;5095347;28;19908;-79
2022/05/19 05:03:19;;;;;;;;;;;9.70;99.90;;;;;;5093144;28;19958;-79
2022/05/19 05:05:45;;;;;;;;;;;9.80;99.90;;;;;;5094882;28;19965;-79
2022/05/19 05:08:11;;;;;;;;;;;9.90;99.90;;;;;;5094284;28;19912;-79
2022/05/19 05:10:37;;;;;;;;;;;10.10;99.90;;;;;;5094598;28;19908;-78
2022/05/19 05:13:09;;;;;;;;;;;10.20;99.90;;;;;;5094813;28;20357;-76
2022/05/19 05:15:35;;;;;;;;;;;10.40;99.90;;;;;;5094754;28;19915;-79
2022/05/19 05:18:01;;;;;;;;;;;10.50;99.90;;;;;;5095169;28;20373;-79
2022/05/19 05:20:26;;;;;;;;;;;10.70;99.90;;;;;;5094197;28;19908;-79
2022/05/19 05:22:52;;;;;;;;;;;10.80;99.90;;;;;;5094462;28;20365;-79
2022/05/19 05:25:18;;;;;;;;;;;10.90;99.90;;;;;;5094095;28;19923;-78
2022/05/19 05:27:43;;;;;;;;;;;11.00;99.90;;;;;;5094936;28;19956;-79
2022/05/19 05:30:10;;;;;;;;;;;11.10;99.90;;;;;;5094082;28;20300;-79
2022/05/19 05:32:36;;;;;;;;;;;11.20;99.90;;;;;;5094317;28;19916;-79
2022/05/19 05:35:02;;;;;;;;;;;11.30;99.90;;;;;;5094564;28;19908;-78
2022/05/19 05:37:28;;;;;;;;;;;11.40;99.90;;;;;;5094006;28;20357;-78
2022/05/19 05:39:54;;;;;;;;;;;11.50;99.90;;;;;;5094176;28;19918;-79
2022/05/19 05:42:19;;;;;;;;;;;11.60;99.90;;;;;;5093581;28;19916;-79
2022/05/19 05:44:45;;;;;;;;;;;11.70;99.90;;;;;;5094458;28;19918;-79
2022/05/19 05:47:10;;;;;;;;;;;11.80;99.90;;;;;;5093425;28;20372;-81
2022/05/19 05:49:36;;;;;;;;;;;11.90;99.90;;;;;;5094639;28;19908;-79
2022/05/19 05:52:01;;;;;;;;;;;12.00;99.90;;;;;;5094208;28;19954;-80
2022/05/19 05:54:27;;;;;;;;;;;12.00;99.90;;;;;;5093663;28;19923;-81
2022/05/19 05:56:53;;;;;;;;;;;12.10;99.90;;;;;;5093751;28;19927;-81
2022/05/19 05:59:18;;;;;;;;;;;12.10;99.90;;;;;;5093443;28;20023;-81
2022/05/19 06:01:44;;;;;;;;;;;12.20;99.90;;;;;;5093693;28;19931;-81
2022/05/19 06:04:10;;;;;;;;;;;12.30;99.90;;;;;;5093355;28;19919;-82
2022/05/19 06:06:36;;;;;;;;;;;12.40;99.90;;;;;;5093578;28;19912;-82
2022/05/19 06:09:01;;;;;;;;;;;12.50;99.90;;;;;;5093709;28;19957;-82
2022/05/19 06:11:27;;;;;;;;;;;12.60;99.90;;;;;;5092973;28;19911;-80
2022/05/19 06:13:53;;;;;;;;;;;12.70;99.90;;;;;;5093295;28;19908;-82
2022/05/19 06:16:18;;;;;;;;;;;12.70;99.90;;;;;;5093191;28;20299;-82
2022/05/19 06:18:44;;;;;;;;;;;12.80;99.90;;;;;;5093547;28;19923;-81
2022/05/19 06:21:10;;;;;;;;;;;12.90;99.90;;;;;;5092942;28;19995;-80
2022/05/19 06:23:35;;;;;;;;;;;13.00;99.90;;;;;;5093979;28;19919;-82
2022/05/19 06:26:01;;;;;;;;;;;13.10;99.90;;;;;;5093502;28;20273;-82
2022/05/19 06:28:27;;;;;;;;;;;13.20;99.90;;;;;;5092848;28;20045;-81
2022/05/19 06:30:53;;;;;;;;;;;13.30;99.90;;;;;;5093200;28;20381;-81
2022/05/19 06:33:20;;;;;;;;;;;13.40;99.90;;;;;;5092471;28;19908;-81
2022/05/19 06:35:46;;;;;;;;;;;13.50;99.90;;;;;;5092592;28;19912;-81
2022/05/19 06:38:12;;;;;;;;;;;13.60;99.90;;;;;;5092643;28;19908;-81
2022/05/19 06:40:37;;;;;;;;;;;13.50;99.90;;;;;;5092736;28;19942;-82
2022/05/19 06:43:09;;;;;;;;;;;13.60;99.90;;;;;;5092891;28;20264;-82
2022/05/19 06:45:35;;;;;;;;;;;13.80;99.90;;;;;;5093063;28;19912;-81
2022/05/19 06:48:01;;;;;;;;;;;13.90;99.90;;;;;;5093073;28;20467;-81
2022/05/19 06:50:26;;;;;;;;;;;14.00;99.90;;;;;;5092495;28;19908;-82
2022/05/19 06:52:55;;;;;;;;;;;14.10;99.90;;;;;;5093179;28;19908;-82
2022/05/19 06:55:22;;;;;;;;;;;14.10;99.90;;;;;;5092481;28;19915;-81
2022/05/19 06:57:48;;;;;;;;;;;14.20;99.90;;;;;;5092682;28;19924;-82
2022/05/19 07:00:16;;;;;;;;;;;14.30;99.90;;;;;;5092377;28;19908;-81
2022/05/19 07:02:46;;;;;;;;;;;14.10;99.90;;;;;;5092979;28;19916;-82
2022/05/19 07:05:12;;;;;;;;;;;14.20;99.90;;;;;;5092175;28;19919;-78
2022/05/19 07:07:38;;;;;;;;;;;14.20;99.90;;;;;;5092918;28;19912;-81
2022/05/19 07:10:04;;;;;;;;;;;14.30;99.90;;;;;;5092970;28;20371;-81
2022/05/19 07:12:29;;;;;;;;;;;14.40;99.90;;;;;;5092012;28;19909;-80
2022/05/19 07:14:56;;;;;;;;;;;14.40;99.90;;;;;;5091295;28;20368;-81
2022/05/19 07:17:21;;;;;;;;;;;14.50;99.90;;;;;;5091983;28;19912;-81
2022/05/19 07:22:33;;;;;;;;;;;14.90;99.90;;;;;;5095093;28;19923;-79
2022/05/19 07:24:59;;;;;;;;;;;14.90;99.90;;;;;;5094452;28;19916;-80
2022/05/19 07:27:24;;;;;;;;;;;14.90;99.90;;;;;;5091866;28;19916;-79
2022/05/19 07:29:50;;;;;;;;;;;15.00;99.90;;;;;;5092752;28;20277;-80
2022/05/19 07:32:16;;;;;;;;;;;15.10;99.90;;;;;;5091609;28;19909;-80
2022/05/19 07:34:41;;;;;;;;;;;15.30;99.90;;;;;;5092248;28;19908;-80
2022/05/19 07:37:07;;;;;;;;;;;15.20;99.90;;;;;;5092543;28;20015;-80
2022/05/19 07:39:33;;;;;;;;;;;15.20;99.90;;;;;;5090690;28;20570;-80
2022/05/19 07:41:59;;;;;;;;;;;15.20;99.90;;;;;;5092543;28;20276;-80
2022/05/19 07:44:25;;;;;;;;;;;15.20;99.90;;;;;;5091992;28;19924;-80
2022/05/19 07:46:51;;;;;;;;;;;15.30;99.90;;;;;;5093214;28;19912;-80
2022/05/19 07:49:16;;;;;;;;;;;15.30;99.90;;;;;;5095892;28;20313;-79
2022/05/19 07:51:44;;;;;;;;;;;15.30;99.90;;;;;;5096501;28;19908;-79
2022/05/19 07:54:14;;;;;;;;;;;15.30;99.90;;;;;;5098834;28;19915;-80
2022/05/19 07:56:40;;;;;;;;;;;15.40;99.90;;;;;;5095513;28;19947;-80
2022/05/19 07:59:06;;;;;;;;;;;15.60;99.90;;;;;;5096089;28;19912;-78
2022/05/19 08:01:32;;;;;;;;;;;15.70;99.90;;;;;;5095521;28;20413;-80
2022/05/19 08:03:58;;;;;;;;;;;15.70;99.90;;;;;;5095212;28;19919;-80
2022/05/19 08:06:23;;;;;;;;;;;15.70;99.90;;;;;;5094638;28;19912;-80
2022/05/19 08:08:49;;;;;;;;;;;15.80;99.90;;;;;;5093971;28;19908;-80
2022/05/19 08:11:15;;;;;;;;;;;15.90;99.90;;;;;;5095246;28;19974;-77
2022/05/19 08:16:24;;;;;;;;;;;15.80;99.90;;;;;;5094671;28;19917;-79
2022/05/19 08:18:50;;;;;;;;;;;15.80;99.90;;;;;;5095728;28;19912;-81
2022/05/19 08:21:17;;;;;;;;;;;15.90;99.90;;;;;;5094855;28;19975;-76
2022/05/19 08:23:44;;;;;;;;;;;16.10;99.90;;;;;;5089984;28;20053;-80
2022/05/19 08:26:11;;;;;;;;;;;16.10;99.90;;;;;;5086357;28;19912;-80
2022/05/19 08:28:37;;;;;;;;;;;16.20;99.90;;;;;;5094742;28;19990;-80
2022/05/19 08:31:05;;;;;;;;;;;16.10;99.90;;;;;;5095176;28;19908;-79
2022/05/19 08:33:31;;;;;;;;;;;16.10;99.90;;;;;;5095044;28;20002;-79
2022/05/19 08:35:57;;;;;;;;;;;16.10;99.90;;;;;;5095237;28;20345;-79
2022/05/19 08:38:23;;;;;;;;;;;16.10;99.90;;;;;;5094672;28;19908;-80
2022/05/19 08:40:53;;;;;;;;;;;16.10;99.90;;;;;;5095788;28;20250;-79
2022/05/19 08:43:23;;;;;;;;;;;16.20;99.90;;;;;;5094707;28;19912;-78
2022/05/19 08:45:50;;;;;;;;;;;16.20;99.90;;;;;;5094964;28;19923;-79
2022/05/19 08:48:29;;;;;;;;;;;16.30;99.90;;;;;;5095109;28;19998;-76
2022/05/19 08:51:00;;;;;;;;;;;16.30;99.90;;;;;;5095156;28;19908;-79
2022/05/19 08:53:28;;;;;;;;;;;16.30;99.90;;;;;;5095701;28;19908;-79
2022/05/19 08:55:57;;;;;;;;;;;16.40;99.90;;;;;;5095368;28;19915;-80
2022/05/19 08:58:45;;;;;;;;;;;16.50;99.90;;;;;;5093130;28;19978;-79
2022/05/19 09:01:18;;;;;;;;;;;16.50;99.90;;;;;;5091534;28;20434;-80
2022/05/19 09:04:00;;;;;;;;;;;16.50;99.90;;;;;;5094416;28;19916;-80
2022/05/19 09:07:56;;;;;;;;;;;16.40;99.90;;;;;;5094330;28;19912;-79
2022/05/19 09:09:37;;;;;;;;;;;16.50;99.90;;;;;;5093485;28;19959;-81
2022/05/19 09:12:08;;;;;;;;;;;16.50;99.90;;;;;;5095118;28;19908;-80
2022/05/19 09:14:34;;;;;;;;;;;16.50;99.90;;;;;;5093992;28;20003;-79
2022/05/19 09:17:01;;;;;;;;;;;16.60;99.90;;;;;;5094493;28;20010;-80
2022/05/19 09:19:27;;;;;;;;;;;16.50;99.90;;;;;;5094025;28;19908;-80
2022/05/19 09:22:10;;;;;;;;;;;16.50;99.90;;;;;;5094511;28;20361;-80
2022/05/19 09:24:36;;;;;;;;;;;16.60;99.90;;;;;;5094503;28;19916;-79
2022/05/19 09:27:03;;;;;;;;;;;16.60;99.90;;;;;;5093223;28;19908;-81
2022/05/19 09:29:31;;;;;;;;;;;16.70;99.90;;;;;;5094150;28;19912;-80
2022/05/19 09:32:12;;;;;;;;;;;16.80;99.90;;;;;;5094231;28;19915;-82
2022/05/19 09:34:40;;;;;;;;;;;16.90;99.90;;;;;;5093552;28;19980;-79
2022/05/19 09:37:07;;;;;;;;;;;16.90;99.90;;;;;;5094323;28;19909;-79
2022/05/19 09:39:35;;;;;;;;;;;16.80;99.90;;;;;;5093940;28;19908;-81
2022/05/19 09:42:05;;;;;;;;;;;16.60;99.90;;;;;;5094196;28;19908;-80
2022/05/19 09:44:32;;;;;;;;;;;16.60;99.90;;;;;;5093802;28;19962;-80
2022/05/19 09:46:58;;;;;;;;;;;16.50;99.90;;;;;;5094042;28;19918;-79
2022/05/19 09:49:26;;;;;;;;;;;16.30;99.90;;;;;;5093500;28;20003;-79
2022/05/19 09:51:52;;;;;;;;;;;16.20;99.90;;;;;;5094146;28;19913;-81
2022/05/19 09:54:21;;;;;;;;;;;16.00;99.90;;;;;;5094299;28;19969;-80
2022/05/19 09:56:51;;;;;;;;;;;16.20;99.90;;;;;;5093367;28;19908;-79
2022/05/19 09:59:19;;;;;;;;;;;16.40;99.90;;;;;;5091836;28;19916;-79
2022/05/19 10:01:46;;;;;;;;;;;16.60;99.90;;;;;;5079554;28;19942;-80
2022/05/19 10:04:14;;;;;;;;;;;16.90;99.90;;;;;;5093440;28;19912;-81
2022/05/19 10:06:51;;;;;;;;;;;17.20;99.90;;;;;;5092373;28;20527;-80
2022/05/19 10:09:19;;;;;;;;;;;17.30;99.90;;;;;;5092341;28;19955;-80
2022/05/19 10:11:48;;;;;;;;;;;17.30;99.90;;;;;;5092852;28;19997;-81
2022/05/19 10:14:27;;;;;;;;;;;17.40;99.90;;;;;;5093697;28;19908;-80
2022/05/19 10:16:59;;;;;;;;;;;17.60;99.90;;;;;;5093657;28;20321;-81
2022/05/19 10:19:33;;;;;;;;;;;17.80;99.90;;;;;;5093056;28;19908;-80
2022/05/19 10:22:14;;;;;;;;;;;18.10;99.90;;;;;;5092316;28;20370;-81
2022/05/19 10:24:42;;;;;;;;;;;18.10;99.90;;;;;;5092852;28;19962;-80
2022/05/19 10:32:51;;;;;;;;;;;18.10;99.90;;;;;;5091722;28;20004;-79
2022/05/19 10:35:42;;;;;;;;;;;18.10;99.90;;;;;;5092227;28;20304;-80
2022/05/19 10:38:16;;;;;;;;;;;18.10;99.90;;;;;;5093176;28;19943;-80
2022/05/19 10:40:56;;;;;;;;;;;18.10;99.90;;;;;;5092248;28;20728;-81
2022/05/19 10:43:28;;;;;;;;;;;18.20;99.90;;;;;;5093318;28;19986;-81
2022/05/19 10:45:56;;;;;;;;;;;18.30;99.90;;;;;;5093118;28;19916;-80
2022/05/19 10:48:40;;;;;;;;;;;18.30;99.90;;;;;;5093055;28;20337;-81
2022/05/19 10:51:11;;;;;;;;;;;18.30;99.90;;;;;;5093066;28;19915;-80
2022/05/19 10:53:46;;;;;;;;;;;18.30;99.90;;;;;;5092571;28;19953;-80
2022/05/19 10:56:24;;;;;;;;;;;17.90;99.90;;;;;;5092883;28;20365;-81
2022/05/19 10:59:03;;;;;;;;;;;17.70;99.90;;;;;;5093032;28;20012;-80
2022/05/19 11:01:32;;;;;;;;;;;17.50;99.90;;;;;;5091441;28;19916;-81
2022/05/19 11:03:57;;;;;;;;;;;17.40;99.90;;;;;;5093323;28;19912;-81
2022/05/19 11:06:23;;;;;;;;;;;17.40;99.90;;;;;;5093667;28;19912;-81
2022/05/19 11:08:49;;;;;;;;;;;17.50;99.90;;;;;;5092170;28;19931;-81
2022/05/19 11:11:15;;;;;;;;;;;17.70;99.90;;;;;;5092719;28;19916;-82
2022/05/19 11:13:49;;;;;;;;;;;18.00;99.90;;;;;;5092530;28;19908;-81
2022/05/19 11:16:31;;;;;;;;;;;18.20;99.90;;;;;;5092540;28;20383;-82
2022/05/19 11:18:56;;;;;;;;;;;18.40;99.90;;;;;;5092593;28;19912;-81
2022/05/19 11:21:22;;;;;;;;;;;18.70;99.90;;;;;;5094266;28;19989;-81
2022/05/19 11:24:00;;;;;;;;;;;18.90;99.90;;;;;;5096010;28;19916;-82
2022/05/19 11:26:42;;;;;;;;;;;19.00;99.90;;;;;;5096926;28;19919;-79
2022/05/19 11:29:07;;;;;;;;;;;19.10;99.90;;;;;;5097370;28;19950;-82
2022/05/19 11:31:39;;;;;;;;;;;19.10;99.90;;;;;;5096640;28;19908;-82
2022/05/19 11:34:12;;;;;;;;;;;19.00;99.90;;;;;;5096547;28;19931;-82
2022/05/19 11:36:42;;;;;;;;;;;19.10;99.90;;;;;;5129026;27;19935;-81
2022/05/19 11:39:20;;;;;;;;;;;19.10;99.90;;;;;;5096624;28;19912;-82
2022/05/19 11:41:47;;;;;;;;;;;19.10;99.90;;;;;;5096026;28;19908;-81
2022/05/19 11:44:28;;;;;;;;;;;19.10;99.90;;;;;;5095272;28;20335;-81
2022/05/19 11:46:57;;;;;;;;;;;19.00;99.90;;;;;;5096039;28;19912;-80
2022/05/19 11:55:21;;;;;;;;;;;19.10;99.90;;;;;;5096539;28;19931;-81
2022/05/19 11:57:58;;;;;;;;;;;19.10;99.90;;;;;;5095435;28;19951;-81
2022/05/19 12:00:29;;;;;;;;;;;19.10;99.90;;;;;;5096333;28;20285;-81
2022/05/19 12:02:57;;;;;;;;;;;19.10;99.90;;;;;;5092842;28;19916;-81
2022/05/19 12:05:32;;;;;;;;;;;19.10;99.90;;;;;;5096645;28;19937;-80
2022/05/19 12:08:21;;;;;;;;;;;19.20;99.90;;;;;;5096120;28;19920;-79
2022/05/19 12:10:48;;;;;;;;;;;19.30;99.90;;;;;;5075066;28;20364;-81
2022/05/19 12:13:15;;;;;;;;;;;19.30;99.90;;;;;;5096141;28;19908;-81
2022/05/19 12:15:50;;;;;;;;;;;19.40;99.90;;;;;;5095561;28;19908;-81
2022/05/19 12:18:24;;;;;;;;;;;19.50;99.90;;;;;;5096181;28;19908;-81
2022/05/19 12:21:02;;;;;;;;;;;19.50;99.90;;;;;;5095414;28;19925;-82
2022/05/19 12:23:41;;;;;;;;;;;19.50;99.90;;;;;;5095798;28;19919;-81
2022/05/19 12:26:15;;;;;;;;;;;19.40;99.90;;;;;;5095701;28;19912;-81
2022/05/19 12:29:00;;;;;;;;;;;19.60;99.90;;;;;;5095039;28;19908;-81
2022/05/19 12:34:14;;;;;;;;;;;19.90;99.90;;;;;;5094749;28;19914;-81
2022/05/19 12:36:45;;;;;;;;;;;19.80;99.90;;;;;;5094997;28;19908;-82
2022/05/19 12:39:27;;;;;;;;;;;20.00;99.90;;;;;;5092874;28;19999;-84
2022/05/19 12:41:57;;;;;;;;;;;19.90;99.90;;;;;;5094668;28;20032;-83
2022/05/19 12:44:29;;;;;;;;;;;19.90;99.90;;;;;;5095197;28;19912;-83
2022/05/19 12:47:03;;;;;;;;;;;19.80;99.90;;;;;;5093528;28;19995;-82
2022/05/19 12:49:31;;;;;;;;;;;19.70;99.90;;;;;;5095258;28;20250;-82
2022/05/19 12:51:58;;;;;;;;;;;19.60;99.90;;;;;;5095157;28;19914;-83
2022/05/19 12:54:25;;;;;;;;;;;19.60;99.90;;;;;;5095355;28;19955;-82
2022/05/19 12:56:56;;;;;;;;;;;19.70;99.90;;;;;;5094598;28;19973;-81
2022/05/19 12:59:31;;;;;;;;;;;19.60;99.90;;;;;;5095299;28;19912;-82
2022/05/19 13:01:59;;;;;;;;;;;19.50;99.90;;;;;;5094266;28;20318;-82
2022/05/19 13:04:37;;;;;;;;;;;19.50;99.90;;;;;;5095014;28;19912;-83
2022/05/19 13:07:14;;;;;;;;;;;19.60;99.90;;;;;;5095213;28;19912;-83
2022/05/19 13:09:40;;;;;;;;;;;19.50;99.90;;;;;;5093270;28;20315;-82
2022/05/19 13:12:15;;;;;;;;;;;19.20;99.90;;;;;;5094884;28;19908;-82
2022/05/19 13:14:43;;;;;;;;;;;19.20;99.90;;;;;;5094244;28;19908;-82
2022/05/19 13:17:12;;;;;;;;;;;19.10;99.90;;;;;;5094726;28;20314;-82
2022/05/19 13:19:39;;;;;;;;;;;19.20;99.90;;;;;;5094091;28;20084;-82
2022/05/19 13:22:07;;;;;;;;;;;19.30;99.90;;;;;;5094942;28;19912;-83
2022/05/19 13:24:34;;;;;;;;;;;19.40;99.90;;;;;;5094607;28;19912;-81
2022/05/19 13:32:34;;;;;;;;;;;19.40;99.90;;;;;;5094805;28;19996;-83
2022/05/19 13:35:05;;;;;;;;;;;19.50;99.90;;;;;;5093807;28;19915;-83
2022/05/19 13:37:32;;;;;;;;;;;19.70;99.90;;;;;;5094663;28;20002;-82
2022/05/19 13:40:18;;;;;;;;;;;19.70;99.90;;;;;;5093857;28;19912;-82
2022/05/19 13:42:52;;;;;;;;;;;19.50;99.90;;;;;;5085705;28;19981;-82
2022/05/19 13:45:19;;;;;;;;;;;19.40;99.90;;;;;;5093228;28;19920;-82
2022/05/19 13:47:45;;;;;;;;;;;19.40;99.90;;;;;;5093367;28;20258;-82
2022/05/19 13:50:16;;;;;;;;;;;19.30;99.90;;;;;;5093792;28;19915;-82
2022/05/19 13:52:44;;;;;;;;;;;19.30;99.90;;;;;;5092984;28;19916;-81
2022/05/19 13:55:33;;;;;;;;;;;19.40;99.90;;;;;;5092725;28;19924;-83
2022/05/19 13:57:59;;;;;;;;;;;19.50;99.90;;;;;;5087371;28;19924;-82
2022/05/19 14:00:26;;;;;;;;;;;19.40;99.90;;;;;;5093978;28;19908;-83
2022/05/19 14:02:53;;;;;;;;;;;19.60;99.90;;;;;;5093332;28;20007;-83
2022/05/19 14:05:29;;;;;;;;;;;19.60;99.90;;;;;;5093981;28;19912;-82
2022/05/19 14:07:57;;;;;;;;;;;19.70;99.90;;;;;;5093377;28;19950;-82
2022/05/19 14:10:25;;;;;;;;;;;19.60;99.90;;;;;;5093435;28;19908;-82
2022/05/19 14:12:52;;;;;;;;;;;19.60;99.90;;;;;;5092938;28;19931;-82
2022/05/19 14:15:25;;;;;;;;;;;19.60;99.90;;;;;;5093753;28;20353;-82
2022/05/19 14:17:53;;;;;;;;;;;19.60;99.90;;;;;;5092819;28;19986;-82
2022/05/19 14:20:19;;;;;;;;;;;19.80;99.90;;;;;;5093460;28;20428;-81
2022/05/19 14:22:47;;;;;;;;;;;19.90;99.90;;;;;;5092712;28;20003;-81
2022/05/19 14:25:12;;;;;;;;;;;19.90;99.90;;;;;;5093716;28;19919;-83
2022/05/19 14:27:39;;;;;;;;;;;19.70;99.90;;;;;;5093597;28;19912;-82
2022/05/19 14:30:06;;;;;;;;;;;19.90;99.90;;;;;;5092904;28;19908;-83
2022/05/19 14:32:34;;;;;;;;;;;19.90;99.90;;;;;;5093150;28;19929;-82
2022/05/19 14:35:27;;;;;;;;;;;20.00;99.90;;;;;;5092889;28;19912;-82
2022/05/19 14:37:54;;;;;;;;;;;20.10;99.90;;;;;;5076539;28;19954;-82
2022/05/19 14:43:11;;;;;;;;;;;20.30;99.90;;;;;;5093022;28;19919;-82
2022/05/19 14:45:46;;;;;;;;;;;20.20;99.90;;;;;;5093183;28;20432;-83
2022/05/19 14:48:18;;;;;;;;;;;20.20;99.90;;;;;;5097194;28;19919;-82
2022/05/19 14:50:45;;;;;;;;;;;20.30;99.90;;;;;;5108262;28;20365;-82
2022/05/19 14:53:14;;;;;;;;;;;20.20;99.90;;;;;;5113503;28;19915;-82
2022/05/19 14:55:44;;;;;;;;;;;20.10;99.90;;;;;;5111728;28;19968;-79
2022/05/19 14:58:15;;;;;;;;;;;20.10;99.90;;;;;;5112962;28;19919;-82